createdAt,value
2022-11-27T08:14:55.098Z,8.10
2022-11-27T08:17:21.708Z,8.10
2022-11-27T08:19:51.097Z,8.10
2022-11-27T08:22:19.558Z,8.10
2022-11-27T08:24:48.015Z,8.10
2022-11-27T08:27:16.264Z,8.10
2022-11-27T08:29:43.111Z,8.20
2022-11-27T08:32:10.133Z,8.20
2022-11-27T08:34:37.254Z,8.30
2022-11-27T08:37:05.466Z,8.40
2022-11-27T08:39:32.159Z,8.50
2022-11-27T08:41:58.873Z,8.60
2022-11-27T08:44:25.533Z,8.70
2022-11-27T08:46:52.240Z,8.80
2022-11-27T08:49:18.915Z,9.00
2022-11-27T08:51:45.756Z,9.10
2022-11-27T08:54:12.370Z,9.30
2022-11-27T08:56:39.035Z,9.50
2022-11-27T08:59:07.955Z,9.50
2022-11-27T09:01:35.000Z,9.60
2022-11-27T09:04:01.918Z,9.60
2022-11-27T09:06:31.202Z,9.60
2022-11-27T09:08:59.739Z,9.60
2022-11-27T09:11:28.189Z,9.60
2022-11-27T09:13:58.301Z,9.60
2022-11-27T09:16:25.722Z,9.60
2022-11-27T09:18:54.133Z,9.60
2022-11-27T09:21:23.052Z,9.70
2022-11-27T09:23:54.534Z,9.80
2022-11-27T09:26:23.765Z,9.90
2022-11-27T09:28:50.426Z,10.00
2022-11-27T09:31:17.171Z,9.90
2022-11-27T09:33:44.319Z,9.90
2022-11-27T09:36:19.930Z,10.00
2022-11-27T09:38:46.663Z,10.10
2022-11-27T09:41:21.914Z,10.20
2022-11-27T09:43:56.735Z,10.30
2022-11-27T09:46:33.231Z,10.40
2022-11-27T09:49:03.211Z,10.30
2022-11-27T09:51:59.690Z,10.40
2022-11-27T09:54:48.005Z,10.50
2022-11-27T09:57:37.598Z,10.50
2022-11-27T10:00:11.488Z,10.60
2022-11-27T10:02:38.549Z,10.70
2022-11-27T10:05:15.053Z,10.60
2022-11-27T10:08:03.295Z,10.60
2022-11-27T10:10:56.925Z,10.40
2022-11-27T10:13:47.710Z,10.40
2022-11-27T10:16:40.113Z,10.40
2022-11-27T10:19:31.423Z,10.50
2022-11-27T10:25:40.363Z,10.70
2022-11-27T10:28:15.178Z,10.70
2022-11-27T10:30:54.252Z,10.70
2022-11-27T10:33:27.262Z,10.90
2022-11-27T10:35:54.850Z,10.90
2022-11-27T10:38:26.599Z,11.00
2022-11-27T10:41:09.852Z,11.10
2022-11-27T10:43:39.435Z,11.20
2022-11-27T10:46:24.376Z,11.40
2022-11-27T10:48:51.618Z,11.60
2022-11-27T10:51:22.798Z,11.60
2022-11-27T10:53:53.545Z,11.50
2022-11-27T10:56:39.863Z,11.50
2022-11-27T10:59:13.458Z,11.60
2022-11-27T11:01:46.260Z,11.60
2022-11-27T11:04:37.069Z,11.70
2022-11-27T11:07:04.524Z,11.70
2022-11-27T11:09:34.728Z,11.80
2022-11-27T11:12:20.463Z,11.70
2022-11-27T11:15:00.932Z,11.60
2022-11-27T11:17:31.084Z,11.60
2022-11-27T11:19:57.740Z,11.60
2022-11-27T11:22:24.953Z,11.60
2022-11-27T11:24:53.279Z,11.60
2022-11-27T11:27:26.402Z,11.70
2022-11-27T11:29:56.437Z,11.70
2022-11-27T11:32:38.652Z,11.70
2022-11-27T11:35:11.214Z,11.70
2022-11-27T11:37:46.143Z,11.70
2022-11-27T11:40:16.788Z,11.70
2022-11-27T11:43:41.975Z,11.70
2022-11-27T11:46:24.519Z,11.70
2022-11-27T11:49:19.771Z,11.70
2022-11-27T11:52:04.482Z,11.80
2022-11-27T11:54:43.140Z,11.80
2022-11-27T11:57:32.617Z,11.80
2022-11-27T12:00:15.460Z,11.90
2022-11-27T12:02:57.719Z,11.80
2022-11-27T12:05:54.411Z,11.80
2022-11-27T12:08:26.544Z,11.90
2022-11-27T12:11:01.886Z,11.90
2022-11-27T12:13:58.926Z,12.00
2022-11-27T12:16:40.260Z,12.00
2022-11-27T12:19:16.973Z,12.00
2022-11-27T12:22:02.736Z,12.10
2022-11-27T12:24:51.894Z,12.10
2022-11-27T12:27:36.227Z,12.10
2022-11-27T12:30:15.874Z,12.10
2022-11-27T12:32:51.811Z,12.20
2022-11-27T12:35:31.348Z,12.20
2022-11-27T12:37:57.992Z,12.20
2022-11-27T12:41:09.822Z,12.30
2022-11-27T12:43:49.506Z,12.40
2022-11-27T12:46:51.722Z,12.40
2022-11-27T12:49:30.666Z,12.40
2022-11-27T12:52:17.319Z,12.50
2022-11-27T12:55:12.421Z,12.50
2022-11-27T12:58:07.657Z,12.40
2022-11-27T13:00:41.011Z,12.40
2022-11-27T13:03:30.610Z,12.20
2022-11-27T13:06:05.103Z,12.10
2022-11-27T13:08:51.006Z,11.90
2022-11-27T13:11:29.342Z,11.70
2022-11-27T13:14:03.239Z,11.60
2022-11-27T13:16:38.453Z,11.50
2022-11-27T13:19:28.258Z,11.50
2022-11-27T13:21:57.814Z,11.40
2022-11-27T13:24:28.154Z,11.40
2022-11-27T13:27:04.658Z,11.40
2022-11-27T13:29:38.976Z,11.40
2022-11-27T13:32:07.849Z,11.40
2022-11-27T13:34:43.595Z,11.30
2022-11-27T13:37:34.082Z,11.30
2022-11-27T13:40:29.323Z,11.30
2022-11-27T13:42:59.462Z,11.30
2022-11-27T13:45:30.180Z,11.30
2022-11-27T13:48:00.093Z,11.30
2022-11-27T13:50:31.052Z,11.30
2022-11-27T13:53:04.626Z,11.30
2022-11-27T13:55:40.319Z,11.40
2022-11-27T13:58:08.123Z,11.40
2022-11-27T14:00:41.488Z,11.50
2022-11-27T14:03:21.322Z,11.50
2022-11-27T14:05:47.933Z,11.50
2022-11-27T14:08:31.437Z,11.50
2022-11-27T14:11:02.736Z,11.60
2022-11-27T14:13:44.336Z,11.50
2022-11-27T14:16:36.012Z,11.50
2022-11-27T14:19:34.642Z,11.50
2022-11-27T14:22:19.836Z,11.50
2022-11-27T14:24:55.540Z,11.40
2022-11-27T14:27:26.011Z,11.40
2022-11-27T14:29:52.732Z,11.40
2022-11-27T14:32:20.918Z,11.40
2022-11-27T14:34:48.709Z,11.40
2022-11-27T14:37:28.314Z,11.40
2022-11-27T14:39:55.760Z,11.40
2022-11-27T14:42:29.491Z,11.30
2022-11-27T14:45:15.563Z,11.30
2022-11-27T14:47:49.546Z,11.30
2022-11-27T14:50:16.897Z,11.30
2022-11-27T14:52:55.902Z,11.20
2022-11-27T14:55:23.766Z,11.20
2022-11-27T14:57:52.747Z,11.20
2022-11-27T15:00:24.256Z,11.20
2022-11-27T15:02:53.390Z,11.20
2022-11-27T15:05:28.597Z,11.10
2022-11-27T15:07:58.054Z,11.10
2022-11-27T15:10:50.923Z,11.10
2022-11-27T15:13:33.387Z,11.00
2022-11-27T15:16:24.882Z,10.90
2022-11-27T15:18:59.954Z,10.90
2022-11-27T15:21:27.218Z,10.80
2022-11-27T15:23:55.796Z,10.80
2022-11-27T15:26:39.809Z,10.80
2022-11-27T15:29:31.567Z,10.70
2022-11-27T15:31:58.403Z,10.70
2022-11-27T15:34:25.514Z,10.60
2022-11-27T15:37:03.828Z,10.60
2022-11-27T15:39:38.113Z,10.60
2022-11-27T15:42:09.712Z,10.60
2022-11-27T15:44:36.890Z,10.60
2022-11-27T15:47:05.676Z,10.50
2022-11-27T15:49:32.915Z,10.50
2022-11-27T15:51:59.731Z,10.40
2022-11-27T15:54:29.112Z,10.30
2022-11-27T15:56:55.917Z,10.30
2022-11-27T15:59:24.961Z,10.20
2022-11-27T16:01:51.830Z,10.20
2022-11-27T16:04:18.950Z,10.10
2022-11-27T16:06:45.671Z,10.00
2022-11-27T16:09:12.310Z,9.90
2022-11-27T16:11:39.184Z,9.80
2022-11-27T16:14:06.013Z,9.80
2022-11-27T16:16:33.184Z,9.70
2022-11-27T16:19:01.118Z,9.60
2022-11-27T16:21:30.242Z,9.60
2022-11-27T16:23:58.873Z,9.50
2022-11-27T16:26:26.366Z,9.60
2022-11-27T16:28:53.352Z,9.60
2022-11-27T16:31:20.523Z,9.50
2022-11-27T16:33:47.505Z,9.50
2022-11-27T16:36:17.180Z,9.50
2022-11-27T16:38:44.502Z,9.50
2022-11-27T16:41:14.336Z,9.50
2022-11-27T16:43:44.497Z,9.50
2022-11-27T16:46:19.872Z,9.50
2022-11-27T16:48:47.597Z,9.50
2022-11-27T16:51:18.058Z,9.50
2022-11-27T16:53:47.009Z,9.50
2022-11-27T16:56:19.196Z,9.40
2022-11-27T16:58:47.145Z,9.50
2022-11-27T17:01:25.977Z,9.50
